createdAt,value
2018-06-27T00:01:53.974Z,15.27
2018-06-27T00:04:22.735Z,15.22
2018-06-27T00:06:51.439Z,15.31
2018-06-27T00:09:20.356Z,15.24
2018-06-27T00:11:49.103Z,15.25
2018-06-27T00:14:17.848Z,15.30
2018-06-27T00:16:47.312Z,15.20
2018-06-27T00:19:16.155Z,15.23
2018-06-27T00:21:44.899Z,15.20
2018-06-27T00:24:13.699Z,15.26
2018-06-27T00:26:42.633Z,15.21
2018-06-27T00:29:11.470Z,15.28
2018-06-27T00:31:40.272Z,15.23
2018-06-27T00:34:09.159Z,15.31
2018-06-27T00:36:37.836Z,15.21
2018-06-27T00:39:08.707Z,15.34
2018-06-27T00:41:37.607Z,15.22
2018-06-27T00:44:06.524Z,15.27
2018-06-27T00:46:35.605Z,15.27
2018-06-27T00:49:04.483Z,15.23
2018-06-27T00:51:33.623Z,15.14
2018-06-27T00:54:07.686Z,15.12
2018-06-27T00:56:38.263Z,15.09
2018-06-27T00:59:07.140Z,15.12
2018-06-27T01:01:36.872Z,15.01
2018-06-27T01:04:06.049Z,15.02
2018-06-27T01:06:35.145Z,15.00
2018-06-27T01:09:04.987Z,14.98
2018-06-27T01:11:34.782Z,14.93
2018-06-27T01:14:04.128Z,14.89
2018-06-27T01:16:33.564Z,14.87
2018-06-27T01:19:02.876Z,14.80
2018-06-27T01:21:31.872Z,14.78
2018-06-27T01:24:00.972Z,14.70
2018-06-27T01:26:30.432Z,14.66
2018-06-27T01:28:59.775Z,14.60
2018-06-27T01:31:30.025Z,14.54
2018-06-27T01:33:59.297Z,14.55
2018-06-27T01:36:28.310Z,14.61
2018-06-27T01:38:57.015Z,14.56
2018-06-27T01:41:25.683Z,14.54
2018-06-27T01:43:54.363Z,14.59
2018-06-27T01:46:23.120Z,14.61
2018-06-27T01:48:51.802Z,14.61
2018-06-27T01:51:20.527Z,14.61
2018-06-27T01:53:49.253Z,14.59
2018-06-27T01:56:17.956Z,14.69
2018-06-27T01:58:46.651Z,14.64
2018-06-27T02:01:15.318Z,14.67
2018-06-27T02:03:44.264Z,14.67
2018-06-27T02:06:12.999Z,14.63
2018-06-27T02:08:41.855Z,14.66
2018-06-27T02:11:10.579Z,14.67
2018-06-27T02:13:39.288Z,14.63
2018-06-27T02:16:07.972Z,14.59
2018-06-27T02:18:36.658Z,14.56
2018-06-27T02:21:05.320Z,14.62
2018-06-27T02:23:36.294Z,14.64
2018-06-27T02:26:05.075Z,14.58
2018-06-27T02:28:33.796Z,14.52
2018-06-27T02:31:02.541Z,14.47
2018-06-27T02:33:31.304Z,14.49
2018-06-27T02:36:00.330Z,14.46
2018-06-27T02:38:29.235Z,14.49
2018-06-27T02:40:57.866Z,14.46
2018-06-27T02:43:26.514Z,14.51
2018-06-27T02:45:55.359Z,14.52
2018-06-27T02:48:24.038Z,14.47
2018-06-27T02:50:52.660Z,14.39
2018-06-27T02:53:21.353Z,14.42
2018-06-27T02:55:49.979Z,14.42
2018-06-27T02:58:18.663Z,14.29
2018-06-27T03:00:47.330Z,14.35
2018-06-27T03:03:15.994Z,14.42
2018-06-27T03:05:44.624Z,14.30
2018-06-27T03:08:13.317Z,14.28
2018-06-27T03:10:41.994Z,14.23
2018-06-27T03:13:10.643Z,14.18
2018-06-27T03:15:39.337Z,14.13
2018-06-27T03:18:07.991Z,14.14
2018-06-27T03:20:36.646Z,14.07
2018-06-27T03:23:05.983Z,14.05
2018-06-27T03:25:34.630Z,14.07
2018-06-27T03:28:03.288Z,14.08
2018-06-27T03:30:31.948Z,14.04
2018-06-27T03:33:00.595Z,14.08
2018-06-27T03:35:29.274Z,14.01
2018-06-27T03:37:58.170Z,13.98
2018-06-27T03:40:26.916Z,13.98
2018-06-27T03:42:55.574Z,13.94
2018-06-27T03:45:24.259Z,13.95
2018-06-27T03:47:52.957Z,13.91
2018-06-27T03:50:21.571Z,13.87
2018-06-27T03:52:50.242Z,13.92
2018-06-27T03:55:18.920Z,13.91
2018-06-27T03:57:47.578Z,13.93
2018-06-27T04:00:16.216Z,13.94
2018-06-27T04:02:49.939Z,13.91
2018-06-27T04:05:18.640Z,13.85
2018-06-27T04:07:47.327Z,13.89
2018-06-27T04:10:15.991Z,13.89
2018-06-27T04:12:44.761Z,13.87
2018-06-27T04:15:13.572Z,13.84
2018-06-27T04:17:42.223Z,13.83
2018-06-27T04:20:11.549Z,13.81
2018-06-27T04:22:40.164Z,13.84
2018-06-27T04:25:08.884Z,13.76
2018-06-27T04:27:37.552Z,13.87
2018-06-27T04:30:06.355Z,13.87
2018-06-27T04:32:35.041Z,13.78
2018-06-27T04:35:03.820Z,13.84
2018-06-27T04:37:32.595Z,13.95
2018-06-27T04:40:01.430Z,13.95
2018-06-27T04:42:30.522Z,14.12
2018-06-27T04:45:00.242Z,14.15
2018-06-27T04:47:29.134Z,14.18
2018-06-27T04:49:57.964Z,14.17
2018-06-27T04:52:27.205Z,14.20
2018-06-27T04:54:58.424Z,14.19
2018-06-27T04:57:27.336Z,14.16
2018-06-27T04:59:56.050Z,14.12
2018-06-27T05:02:24.930Z,14.15
2018-06-27T05:04:53.769Z,14.31
2018-06-27T05:07:22.490Z,14.48
2018-06-27T05:09:57.093Z,14.65
2018-06-27T05:12:25.753Z,14.63
2018-06-27T05:14:54.460Z,14.69
2018-06-27T05:17:23.215Z,14.75
2018-06-27T05:19:51.940Z,14.76
2018-06-27T05:22:21.470Z,14.77
2018-06-27T05:24:50.922Z,14.70
2018-06-27T05:27:19.818Z,14.67
2018-06-27T05:29:48.459Z,14.81
2018-06-27T05:32:17.211Z,14.80
2018-06-27T05:34:45.943Z,15.00
2018-06-27T05:37:14.835Z,15.09
2018-06-27T05:39:43.627Z,15.06
2018-06-27T05:42:14.392Z,15.17
2018-06-27T05:44:44.114Z,15.39
2018-06-27T05:47:16.036Z,15.56
2018-06-27T05:49:44.774Z,15.58
2018-06-27T05:52:13.510Z,15.49
2018-06-27T05:54:42.262Z,15.48
2018-06-27T05:57:10.998Z,15.71
2018-06-27T05:59:39.816Z,15.86
2018-06-27T06:02:08.551Z,15.88
2018-06-27T06:04:37.266Z,15.99
2018-06-27T06:07:05.968Z,15.98
2018-06-27T06:09:34.597Z,15.85
2018-06-27T06:12:03.222Z,16.27
2018-06-27T06:14:32.004Z,16.21
2018-06-27T06:17:00.768Z,16.33
2018-06-27T06:19:29.467Z,16.46
2018-06-27T06:21:58.134Z,16.49
2018-06-27T06:24:26.819Z,16.53
2018-06-27T06:26:55.506Z,16.81
2018-06-27T06:29:24.725Z,16.80
2018-06-27T06:31:53.866Z,16.97
2018-06-27T06:34:22.589Z,16.89
2018-06-27T06:36:51.352Z,16.94
2018-06-27T06:39:20.131Z,16.82
2018-06-27T06:41:48.798Z,16.76
2018-06-27T06:44:17.468Z,16.73
2018-06-27T06:46:46.183Z,16.74
2018-06-27T06:49:14.838Z,16.76
2018-06-27T06:51:44.006Z,16.85
2018-06-27T06:54:12.863Z,16.99
2018-06-27T06:56:41.628Z,16.68
2018-06-27T06:59:10.483Z,16.81
2018-06-27T07:01:39.484Z,17.07
2018-06-27T07:04:08.603Z,16.93
2018-06-27T07:06:37.572Z,16.90
2018-06-27T07:09:10.268Z,17.01
2018-06-27T07:11:39.839Z,17.13
2018-06-27T07:14:13.098Z,17.09
2018-06-27T07:16:42.004Z,17.18
2018-06-27T07:19:10.794Z,17.23
2018-06-27T07:21:39.541Z,17.21
2018-06-27T07:24:14.672Z,17.25
2018-06-27T07:26:48.015Z,17.66
2018-06-27T07:29:19.952Z,18.05
2018-06-27T07:31:48.862Z,18.05
2018-06-27T07:34:17.626Z,18.05
2018-06-27T07:36:46.372Z,18.03
2018-06-27T07:39:15.191Z,17.72
2018-06-27T07:41:43.895Z,17.80
2018-06-27T07:44:12.600Z,17.80
2018-06-27T07:46:41.483Z,17.92
2018-06-27T07:49:10.244Z,18.05
2018-06-27T07:51:38.949Z,18.37
2018-06-27T07:54:07.677Z,18.45
2018-06-27T07:56:36.433Z,18.40
2018-06-27T07:59:05.290Z,18.33
2018-06-27T08:01:34.078Z,18.58
2018-06-27T08:04:02.936Z,18.47
2018-06-27T08:06:35.719Z,18.39
2018-06-27T08:09:06.857Z,18.30
2018-06-27T08:11:35.511Z,18.27
2018-06-27T08:14:04.335Z,18.23
2018-06-27T08:16:33.060Z,18.58
2018-06-27T08:19:01.788Z,18.73
2018-06-27T08:21:30.444Z,18.71
2018-06-27T08:23:59.153Z,18.48
2018-06-27T08:26:27.981Z,18.23
2018-06-27T08:28:56.511Z,18.09
2018-06-27T08:31:25.223Z,18.14
2018-06-27T08:33:54.054Z,18.42
2018-06-27T08:36:22.794Z,18.71
2018-06-27T08:38:51.631Z,18.92
2018-06-27T08:41:20.506Z,19.22
2018-06-27T08:43:49.556Z,19.18
2018-06-27T08:46:18.256Z,18.92
2018-06-27T08:48:47.142Z,19.01
2018-06-27T08:51:16.929Z,19.15
2018-06-27T08:53:46.791Z,19.15
2018-06-27T08:56:16.493Z,19.00
2018-06-27T08:58:45.473Z,19.22
2018-06-27T09:01:14.536Z,19.73
2018-06-27T09:03:43.540Z,19.87
2018-06-27T09:06:12.626Z,20.03
2018-06-27T09:08:41.645Z,20.33
2018-06-27T09:11:10.754Z,20.34
2018-06-27T09:13:41.989Z,20.22
2018-06-27T09:16:11.132Z,19.71
2018-06-27T09:31:29.898Z,19.91
2018-06-27T09:33:58.748Z,20.33
2018-06-27T09:36:28.392Z,20.44
2018-06-27T09:38:57.597Z,20.42
2018-06-27T09:41:26.693Z,20.17
2018-06-27T09:43:56.008Z,19.81
2018-06-27T09:46:25.348Z,19.81
2018-06-27T09:48:54.519Z,19.92
2018-06-27T09:51:23.515Z,19.93
2018-06-27T09:53:52.631Z,19.77
2018-06-27T09:56:21.783Z,20.29
2018-06-27T09:58:51.514Z,20.22
2018-06-27T10:01:21.762Z,20.47
2018-06-27T10:03:50.872Z,20.59
2018-06-27T10:06:19.999Z,20.60
2018-06-27T10:08:49.300Z,20.71
2018-06-27T10:11:18.497Z,21.05
2018-06-27T10:13:48.533Z,20.75
2018-06-27T10:16:17.762Z,20.93
2018-06-27T10:18:47.449Z,21.16
2018-06-27T10:21:16.751Z,21.10
2018-06-27T10:23:46.307Z,21.13
2018-06-27T10:26:15.307Z,21.33
2018-06-27T10:28:44.456Z,21.60
2018-06-27T10:31:13.525Z,21.56
2018-06-27T10:33:43.121Z,21.41
2018-06-27T10:36:12.051Z,21.24
2018-06-27T10:38:41.233Z,21.23
2018-06-27T10:41:10.156Z,21.34
2018-06-27T10:43:39.002Z,21.27
2018-06-27T10:46:08.268Z,21.81
2018-06-27T10:48:37.927Z,21.86
2018-06-27T10:51:06.940Z,22.04
2018-06-27T10:53:35.904Z,21.81
2018-06-27T10:56:05.309Z,21.72
2018-06-27T10:58:34.701Z,21.80
2018-06-27T11:01:03.943Z,21.89
2018-06-27T11:03:33.095Z,22.53
2018-06-27T11:06:03.856Z,22.23
2018-06-27T11:08:33.160Z,21.99
2018-06-27T11:11:02.097Z,21.83
2018-06-27T11:13:31.080Z,21.69
2018-06-27T11:15:59.832Z,22.09
2018-06-27T11:18:28.925Z,22.49
2018-06-27T11:20:57.705Z,22.98
2018-06-27T11:23:26.784Z,23.17
2018-06-27T11:25:55.684Z,22.82
2018-06-27T11:28:24.802Z,22.78
2018-06-27T11:30:53.708Z,22.42
2018-06-27T11:33:23.453Z,23.08
2018-06-27T11:35:52.339Z,23.01
2018-06-27T11:38:21.371Z,22.65
2018-06-27T11:40:50.280Z,22.63
2018-06-27T11:43:19.504Z,22.83
2018-06-27T11:45:48.557Z,23.34
2018-06-27T11:48:17.352Z,23.25
2018-06-27T11:50:46.483Z,23.49
2018-06-27T11:53:15.468Z,23.74
2018-06-27T11:55:44.297Z,23.74
2018-06-27T11:58:13.198Z,23.93
2018-06-27T12:00:42.100Z,24.04
2018-06-27T12:03:10.920Z,23.62
2018-06-27T12:05:39.982Z,23.67
2018-06-27T12:08:08.911Z,23.54
2018-06-27T12:10:37.792Z,23.14
2018-06-27T12:13:06.940Z,22.83
2018-06-27T12:15:35.808Z,22.58
2018-06-27T12:18:04.664Z,22.84
2018-06-27T12:20:33.736Z,23.30
2018-06-27T12:23:02.715Z,23.98
2018-06-27T12:25:31.678Z,23.92
2018-06-27T12:28:00.739Z,24.51
2018-06-27T12:30:29.636Z,25.12
2018-06-27T12:32:58.569Z,25.01
2018-06-27T12:35:27.601Z,24.96
2018-06-27T12:37:56.512Z,25.14
2018-06-27T12:40:25.520Z,24.99
2018-06-27T12:42:54.486Z,25.19
2018-06-27T12:45:23.707Z,25.19
2018-06-27T12:47:52.678Z,24.45
2018-06-27T12:50:21.823Z,24.64
2018-06-27T12:52:50.792Z,24.36
2018-06-27T12:55:20.219Z,23.80
2018-06-27T12:57:49.666Z,23.83
2018-06-27T13:00:19.438Z,23.81
2018-06-27T13:02:48.324Z,23.86
2018-06-27T13:05:17.688Z,23.82
2018-06-27T13:07:46.681Z,24.11
2018-06-27T13:10:15.611Z,24.27
2018-06-27T13:12:44.570Z,24.43
2018-06-27T13:15:15.016Z,24.85
2018-06-27T13:17:44.101Z,25.04
2018-06-27T13:20:12.981Z,25.24
2018-06-27T13:22:42.046Z,25.77
2018-06-27T13:25:11.171Z,26.02
2018-06-27T13:27:40.734Z,26.39
2018-06-27T13:30:10.573Z,26.36
2018-06-27T13:32:39.478Z,25.72
2018-06-27T13:35:08.581Z,25.18
2018-06-27T13:37:39.006Z,25.03
2018-06-27T13:40:08.187Z,24.81
2018-06-27T13:42:37.344Z,24.95
2018-06-27T13:45:06.833Z,25.57
2018-06-27T13:47:36.322Z,26.12
2018-06-27T13:50:06.313Z,26.00
2018-06-27T13:52:35.989Z,26.31
2018-06-27T13:55:05.501Z,26.35
2018-06-27T13:57:34.732Z,26.15
2018-06-27T14:00:03.878Z,25.52
2018-06-27T14:02:32.982Z,25.88
2018-06-27T14:05:02.542Z,26.09
2018-06-27T14:07:31.485Z,26.17
2018-06-27T14:10:00.460Z,26.58
2018-06-27T14:12:29.412Z,26.64
2018-06-27T14:14:58.357Z,26.31
2018-06-27T14:17:27.565Z,26.80
2018-06-27T14:19:57.501Z,27.43
2018-06-27T14:22:26.577Z,27.07
2018-06-27T14:24:57.011Z,26.64
2018-06-27T14:27:27.611Z,26.33
2018-06-27T14:30:00.707Z,26.16
2018-06-27T14:32:30.115Z,25.83
2018-06-27T14:34:59.323Z,25.60
2018-06-27T14:37:29.263Z,25.14
2018-06-27T14:39:59.235Z,24.99
2018-06-27T14:42:29.195Z,24.86
2018-06-27T14:44:58.244Z,24.95
2018-06-27T14:47:27.228Z,24.83
2018-06-27T14:49:56.130Z,24.36
2018-06-27T14:52:25.345Z,23.83
2018-06-27T14:54:54.639Z,22.35
2018-06-27T14:57:23.746Z,21.32
2018-06-27T14:59:53.332Z,20.28
2018-06-27T15:02:22.843Z,19.63
2018-06-27T15:04:52.062Z,19.34
2018-06-27T15:07:21.593Z,19.03
2018-06-27T15:09:50.849Z,18.69
2018-06-27T15:12:20.876Z,18.43
2018-06-27T15:14:50.208Z,18.10
2018-06-27T15:17:19.209Z,17.98
2018-06-27T15:19:48.133Z,17.82
2018-06-27T15:22:17.446Z,17.75
2018-06-27T15:24:47.125Z,17.79
2018-06-27T15:27:16.119Z,17.91
2018-06-27T15:29:45.773Z,17.84
2018-06-27T15:32:15.520Z,17.78
2018-06-27T15:34:45.880Z,17.82
2018-06-27T15:37:14.813Z,17.76
2018-06-27T15:39:43.721Z,17.62
2018-06-27T15:42:12.874Z,17.65
2018-06-27T15:44:41.897Z,17.65
2018-06-27T15:47:11.367Z,17.71
2018-06-27T15:49:40.332Z,17.80
2018-06-27T15:52:09.383Z,17.84
2018-06-27T15:54:39.285Z,17.78
2018-06-27T15:57:08.987Z,17.71
2018-06-27T15:59:40.653Z,17.71
2018-06-27T16:02:09.930Z,17.62
2018-06-27T16:04:39.608Z,17.52
2018-06-27T16:07:08.743Z,17.63
2018-06-27T16:09:37.717Z,17.54
2018-06-27T16:12:07.003Z,17.52
2018-06-27T16:14:36.653Z,17.65
2018-06-27T16:17:05.925Z,17.69
2018-06-27T16:19:35.179Z,17.71
2018-06-27T16:22:05.018Z,17.69
2018-06-27T16:24:34.371Z,17.72
2018-06-27T16:27:05.319Z,17.63
2018-06-27T16:29:34.908Z,17.63
2018-06-27T16:32:05.043Z,17.44
2018-06-27T16:34:35.690Z,17.47
2018-06-27T16:37:06.528Z,17.39
2018-06-27T16:39:36.003Z,17.44
2018-06-27T16:42:05.211Z,17.51
2018-06-27T16:44:34.853Z,17.49
2018-06-27T16:47:06.652Z,17.37
2018-06-27T16:49:40.225Z,17.32
2018-06-27T16:52:10.078Z,17.36
2018-06-27T16:54:41.919Z,17.38
2018-06-27T16:57:12.552Z,17.35
2018-06-27T16:59:42.704Z,17.35
2018-06-27T17:02:13.970Z,17.33
2018-06-27T17:23:02.160Z,17.10
2018-06-27T17:25:31.620Z,17.02
2018-06-27T17:28:01.254Z,17.03
2018-06-27T17:30:31.578Z,17.08
2018-06-27T17:33:01.602Z,17.16
2018-06-27T17:35:33.954Z,17.18
2018-06-27T17:38:09.188Z,17.25
2018-06-27T17:40:40.287Z,17.23
2018-06-27T17:43:11.403Z,17.32
2018-06-27T17:45:42.128Z,17.36
2018-06-27T17:48:13.306Z,17.35
2018-06-27T17:50:43.394Z,17.29
2018-06-27T17:53:13.067Z,17.20
2018-06-27T17:55:44.069Z,17.18
2018-06-27T17:58:16.275Z,17.06
2018-06-27T18:00:48.417Z,17.03
2018-06-27T18:03:18.576Z,16.91
2018-06-27T18:05:48.708Z,16.83
2018-06-27T18:08:18.207Z,16.71
2018-06-27T18:10:50.503Z,16.71
2018-06-27T18:13:20.141Z,16.63
2018-06-27T18:16:04.532Z,16.63
2018-06-27T18:18:34.465Z,16.59
2018-06-27T18:21:06.658Z,16.56
2018-06-27T18:23:39.096Z,16.45
2018-06-27T18:26:09.930Z,16.34
2018-06-27T18:28:42.247Z,16.39
2018-06-27T18:31:15.007Z,16.31
2018-06-27T18:33:47.490Z,16.27
2018-06-27T18:36:22.306Z,16.27
2018-06-27T18:38:56.584Z,16.36
2018-06-27T18:41:28.823Z,16.28
2018-06-27T18:43:59.713Z,16.33
2018-06-27T18:46:29.129Z,16.39
2018-06-27T18:49:05.411Z,16.35
2018-06-27T18:51:37.651Z,16.27
2018-06-27T18:54:07.682Z,16.30
2018-06-27T18:56:38.298Z,16.29
2018-06-27T18:59:13.441Z,16.32
2018-06-27T19:01:45.342Z,16.34
2018-06-27T19:04:18.775Z,16.36
2018-06-27T19:06:49.059Z,16.31
2018-06-27T19:09:21.087Z,16.28
2018-06-27T19:11:55.187Z,16.30
2018-06-27T19:14:27.382Z,16.37
2018-06-27T19:16:57.388Z,16.39
2018-06-27T19:54:48.890Z,16.55
2018-06-27T19:57:23.205Z,16.51
2018-06-27T20:02:40.482Z,16.53
2018-06-27T20:23:49.889Z,16.37
2018-06-27T20:44:56.395Z,16.00
2018-06-27T20:47:30.710Z,15.98
2018-06-27T20:50:00.420Z,15.92
2018-06-27T20:52:31.488Z,15.89
2018-06-27T20:55:05.420Z,15.86
2018-06-27T20:57:39.018Z,15.82
2018-06-27T21:00:11.701Z,15.72
2018-06-27T21:02:42.874Z,15.60
2018-06-27T21:05:12.762Z,15.62
2018-06-27T21:07:41.901Z,15.60
2018-06-27T21:10:10.703Z,15.50
2018-06-27T21:12:39.438Z,15.47
2018-06-27T21:15:13.112Z,15.47
2018-06-27T21:17:42.815Z,15.42
2018-06-27T21:20:11.831Z,15.45
2018-06-27T21:22:41.257Z,15.42
2018-06-27T21:25:10.866Z,15.45
2018-06-27T21:27:39.861Z,15.32
2018-06-27T21:30:09.738Z,15.34
2018-06-27T21:32:39.359Z,15.27
2018-06-27T21:35:08.306Z,15.24
2018-06-27T21:37:37.339Z,15.26
2018-06-27T21:40:06.172Z,15.27
2018-06-27T21:42:34.924Z,15.25
2018-06-27T21:45:03.883Z,15.32
2018-06-27T21:47:32.671Z,15.27
2018-06-27T21:50:01.596Z,15.29
2018-06-27T21:52:30.307Z,15.29
2018-06-27T21:55:00.639Z,15.26
2018-06-27T21:57:29.395Z,15.27
2018-06-27T21:59:58.134Z,15.22
2018-06-27T22:02:26.965Z,15.27
2018-06-27T22:04:55.685Z,15.30
2018-06-27T22:07:24.705Z,15.26
2018-06-27T22:09:53.382Z,15.16
2018-06-27T22:12:22.042Z,15.10
2018-06-27T22:14:50.767Z,15.09
2018-06-27T22:17:19.612Z,14.97
2018-06-27T22:19:48.377Z,14.94
2018-06-27T22:22:17.243Z,14.95
2018-06-27T22:24:46.031Z,14.88
2018-06-27T22:27:14.838Z,14.82
2018-06-27T22:29:43.565Z,14.92
2018-06-27T22:32:12.330Z,14.88
2018-06-27T22:34:41.045Z,14.88
2018-06-27T22:37:09.746Z,14.87
2018-06-27T22:39:38.538Z,14.90
2018-06-27T22:42:07.263Z,14.93
2018-06-27T22:44:36.043Z,14.93
2018-06-27T22:47:05.018Z,14.92
2018-06-27T22:49:33.748Z,14.90
2018-06-27T22:52:02.564Z,14.87
2018-06-27T22:54:31.360Z,14.82
2018-06-27T22:57:00.189Z,14.80
2018-06-27T22:59:28.950Z,14.74
2018-06-27T23:01:57.681Z,14.75
2018-06-27T23:04:26.405Z,14.76
2018-06-27T23:06:55.101Z,14.78
2018-06-27T23:09:23.891Z,14.82
2018-06-27T23:11:52.668Z,14.87
2018-06-27T23:14:21.981Z,14.92
2018-06-27T23:16:50.803Z,14.98
2018-06-27T23:19:19.570Z,14.99
2018-06-27T23:21:48.220Z,15.01
2018-06-27T23:24:17.028Z,14.87
2018-06-27T23:26:45.722Z,14.76
2018-06-27T23:29:14.462Z,14.73
2018-06-27T23:31:43.168Z,14.72
2018-06-27T23:34:11.902Z,14.77
2018-06-27T23:36:40.559Z,14.79
2018-06-27T23:39:11.373Z,14.86
2018-06-27T23:41:40.383Z,14.88
2018-06-27T23:44:09.188Z,14.89
2018-06-27T23:46:37.976Z,14.89
2018-06-27T23:49:07.072Z,14.94
2018-06-27T23:51:35.770Z,14.98
2018-06-27T23:54:04.529Z,15.01
2018-06-27T23:56:33.240Z,15.07
2018-06-27T23:59:02.023Z,15.08
